Time;durP1;ratioP1;P1;durP2;ratioP2;P2;SDS_P1;SDS_P2;PMS_P1;PMS_P2;Temp;Humidity;BMP_temperature;BMP_pressure;BME280_temperature;BME280_humidity;BME280_pressure;Samples;Min_cycle;Max_cycle;Signal;HPM_P1;HPM_P2
2022/04/03 00:00:58;;;;;;;5.78;2.60;;;;;;;9.68;56.37;100578.56;5033364;28;20045;-64
2022/04/03 00:03:25;;;;;;;5.47;2.22;;;;;;;9.71;56.18;100583.59;5033338;28;20041;-66
2022/04/03 00:05:52;;;;;;;6.78;2.80;;;;;;;9.73;56.13;100588.78;5033531;28;20133;-65
2022/04/03 00:08:19;;;;;;;4.97;2.60;;;;;;;9.73;56.16;100594.88;5033307;28;20471;-62
2022/04/03 00:10:47;;;;;;;6.22;2.58;;;;;;;9.73;56.02;100597.47;5033219;28;20512;-61
2022/04/03 00:13:13;;;;;;;4.85;2.20;;;;;;;9.76;55.94;100596.47;5033206;28;20416;-64
2022/04/03 00:15:42;;;;;;;3.97;2.22;;;;;;;9.76;55.98;100602.56;5033134;28;20449;-61
2022/04/03 00:18:10;;;;;;;7.25;2.20;;;;;;;9.76;55.91;100601.72;5033002;28;20045;-61
2022/04/03 00:20:38;;;;;;;4.57;2.28;;;;;;;9.78;55.82;100607.72;5032910;28;20048;-67
2022/04/03 00:23:06;;;;;;;6.90;2.42;;;;;;;9.79;55.96;100609.41;5033061;28;20060;-66
2022/04/03 00:25:33;;;;;;;5.70;2.30;;;;;;;9.77;56.05;100606.84;5032990;28;20054;-65
2022/04/03 00:28:00;;;;;;;5.72;2.70;;;;;;;9.77;56.12;100613.88;5033009;28;20045;-61
2022/04/03 00:30:27;;;;;;;6.40;2.60;;;;;;;9.76;56.20;100613.06;5032822;28;20049;-61
2022/04/03 00:32:54;;;;;;;5.45;2.33;;;;;;;9.77;56.15;100616.50;5032736;28;20049;-66
2022/04/03 00:35:21;;;;;;;4.18;2.38;;;;;;;9.75;56.45;100618.34;5032726;28;20076;-66
2022/04/03 00:37:47;;;;;;;5.05;2.58;;;;;;;9.74;56.29;100612.28;5032706;28;20413;-60
2022/04/03 00:40:15;;;;;;;6.75;2.25;;;;;;;9.73;56.48;100617.63;5032618;28;20061;-61
2022/04/03 00:42:42;;;;;;;4.53;2.08;;;;;;;9.75;56.44;100615.72;5032513;28;20076;-61
2022/04/03 00:45:09;;;;;;;7.13;2.53;;;;;;;9.76;56.35;100613.06;5032744;28;20091;-61
2022/04/03 00:47:36;;;;;;;7.78;2.65;;;;;;;9.77;56.29;100621.75;5032583;28;20115;-61
2022/04/03 00:50:03;;;;;;;3.22;2.28;;;;;;;9.77;56.35;100619.13;5032456;28;20046;-61
2022/04/03 00:52:30;;;;;;;8.13;2.35;;;;;;;9.76;56.26;100615.66;5032479;28;20477;-62
2022/04/03 00:54:57;;;;;;;8.10;2.65;;;;;;;9.77;56.19;100625.19;5032594;28;20054;-63
2022/04/03 00:57:26;;;;;;;4.20;2.72;;;;;;;9.77;56.15;100624.38;5032322;28;20046;-61
2022/04/03 00:59:54;;;;;;;5.43;2.50;;;;;;;9.77;56.16;100635.69;5032559;28;20049;-61
2022/04/03 01:02:21;;;;;;;7.03;2.70;;;;;;;9.77;55.97;100635.69;5032384;28;20494;-65
2022/04/03 01:04:48;;;;;;;5.70;2.47;;;;;;;9.75;55.97;100632.31;5032329;28;20068;-66
2022/04/03 01:07:17;;;;;;;10.10;2.70;;;;;;;9.74;56.15;100635.88;5032368;28;20131;-64
2022/04/03 01:09:44;;;;;;;7.07;2.50;;;;;;;9.74;56.22;100635.88;5032441;28;20046;-64
2022/04/03 01:12:11;;;;;;;8.27;2.20;;;;;;;9.70;56.23;100636.97;5032166;28;20041;-61
2022/04/03 01:14:40;;;;;;;4.10;2.38;;;;;;;9.64;56.50;100637.31;5032090;28;20073;-63
2022/04/03 01:17:10;;;;;;;4.32;2.28;;;;;;;9.58;56.54;100641.09;5032442;28;20045;-66
2022/04/03 01:19:38;;;;;;;5.55;2.40;;;;;;;9.53;56.71;100637.88;5032189;28;20176;-66
2022/04/03 01:22:05;;;;;;;6.10;2.60;;;;;;;9.49;56.84;100649.44;5032104;28;20136;-63
2022/04/03 01:24:33;;;;;;;4.10;2.40;;;;;;;9.45;56.71;100647.94;5032114;28;20049;-61
2022/04/03 01:27:03;;;;;;;4.43;2.17;;;;;;;9.42;56.76;100645.44;5032117;28;20057;-62
2022/04/03 01:29:30;;;;;;;7.25;3.10;;;;;;;9.38;56.85;100651.78;5031992;28;20042;-66
2022/04/03 01:31:56;;;;;;;4.15;2.13;;;;;;;9.35;56.93;100655.41;5031987;28;20057;-63
2022/04/03 01:34:23;;;;;;;5.20;2.15;;;;;;;9.34;56.83;100655.50;5031132;28;20057;-61
2022/04/03 01:36:49;;;;;;;3.88;2.13;;;;;;;9.32;56.88;100653.81;5031657;28;20069;-61
2022/04/03 01:39:16;;;;;;;7.22;2.60;;;;;;;9.34;56.74;100665.97;5030919;28;20085;-64
2022/04/03 01:41:44;;;;;;;5.05;2.53;;;;;;;9.33;56.95;100662.50;5031989;28;20045;-62
2022/04/03 01:44:12;;;;;;;6.90;2.50;;;;;;;9.32;57.00;100655.59;5031928;28;20048;-61
2022/04/03 01:46:39;;;;;;;4.97;2.47;;;;;;;9.32;57.13;100669.53;5031907;28;20058;-62
2022/04/03 01:49:07;;;;;;;5.82;2.42;;;;;;;9.30;57.26;100668.75;5031940;28;20056;-65
2022/04/03 01:51:34;;;;;;;3.88;2.25;;;;;;;9.32;57.02;100674.75;5031724;28;20409;-63
2022/04/03 01:54:01;;;;;;;5.82;2.38;;;;;;;9.32;57.14;100672.13;5031962;28;20100;-66
2022/04/03 01:56:28;;;;;;;4.60;2.40;;;;;;;9.35;56.89;100675.53;5031867;28;20129;-60
2022/04/03 01:58:55;;;;;;;6.15;2.33;;;;;;;9.34;56.90;100673.84;5031861;28;20509;-63
2022/04/03 02:01:21;;;;;;;5.45;2.83;;;;;;;9.34;56.79;100676.47;5031801;28;20058;-67
2022/04/03 02:03:49;;;;;;;4.28;2.33;;;;;;;9.34;56.92;100676.47;5031784;28;20172;-66
2022/04/03 02:06:16;;;;;;;5.32;2.40;;;;;;;9.28;57.07;100680.22;5031694;28;20052;-65
2022/04/03 02:08:43;;;;;;;4.00;1.83;;;;;;;9.23;56.80;100690.09;5031659;28;20099;-65
2022/04/03 02:11:10;;;;;;;6.88;1.90;;;;;;;9.21;56.98;100686.72;5031727;28;20052;-62
2022/04/03 02:13:37;;;;;;;9.10;2.20;;;;;;;9.20;56.89;100692.88;5031604;28;20049;-65
2022/04/03 02:16:04;;;;;;;4.32;2.10;;;;;;;9.20;56.86;100695.50;5033380;28;20414;-61
2022/04/03 02:18:30;;;;;;;6.82;2.33;;;;;;;9.18;56.88;100699.97;5035500;28;20049;-63
2022/04/03 02:20:57;;;;;;;4.18;2.13;;;;;;;9.18;56.97;100702.59;5035340;28;20092;-62
2022/04/03 02:23:24;;;;;;;3.83;2.13;;;;;;;9.19;56.96;100704.28;5035116;28;20057;-66
2022/04/03 02:25:52;;;;;;;8.35;2.35;;;;;;;9.18;56.95;100708.69;5035223;28;20082;-60
2022/04/03 02:28:19;;;;;;;5.00;2.40;;;;;;;9.18;57.14;100700.81;5035145;28;20045;-62
2022/04/03 02:30:48;;;;;;;5.43;2.20;;;;;;;9.18;57.07;100697.34;5035085;28;20060;-61
2022/04/03 02:33:15;;;;;;;5.38;2.72;;;;;;;9.17;57.03;100696.50;5035137;28;20045;-61
2022/04/03 02:35:42;;;;;;;4.68;2.28;;;;;;;9.16;57.05;100702.66;5035084;28;20412;-61
2022/04/03 02:38:08;;;;;;;3.78;2.25;;;;;;;9.13;57.19;100710.69;5034962;28;20049;-66
2022/04/03 02:40:35;;;;;;;4.53;2.08;;;;;;;9.08;57.22;100705.69;5034647;28;20049;-62
2022/04/03 02:43:02;;;;;;;4.18;2.28;;;;;;;9.08;57.23;100707.47;5034949;28;20077;-66
2022/04/03 02:45:29;;;;;;;4.82;2.10;;;;;;;9.05;56.96;100700.59;5034760;28;20053;-61
2022/04/03 02:47:56;;;;;;;6.22;2.65;;;;;;;9.05;57.04;100713.66;5034837;28;20087;-63
2022/04/03 02:50:24;;;;;;;4.43;2.30;;;;;;;9.06;56.88;100717.16;5034769;28;20054;-63
2022/04/03 02:52:54;;;;;;;5.00;2.50;;;;;;;9.03;57.16;100719.91;5034710;28;20076;-66
2022/04/03 02:55:22;;;;;;;7.28;2.92;;;;;;;9.02;57.13;100719.06;5034630;28;20069;-62
2022/04/03 02:57:49;;;;;;;6.18;3.08;;;;;;;9.01;57.17;100719.16;5034816;28;20055;-66
2022/04/03 03:00:17;;;;;;;6.60;3.15;;;;;;;9.02;57.35;100728.72;5034543;28;20079;-65
2022/04/03 03:02:45;;;;;;;5.72;2.85;;;;;;;9.01;57.24;100727.00;5031309;28;20458;-61
2022/04/03 03:05:15;;;;;;;5.03;2.20;;;;;;;8.97;57.48;100727.16;5031370;28;20069;-61
2022/04/03 03:07:45;;;;;;;4.53;2.38;;;;;;;8.97;57.44;100734.16;5030798;28;20049;-60
2022/04/03 03:10:18;;;;;;;3.80;2.42;;;;;;;8.96;57.59;100729.84;5031216;28;20050;-61
2022/04/03 03:12:44;;;;;;;5.55;2.70;;;;;;;8.94;57.61;100736.94;5031057;28;20486;-61
2022/04/03 03:15:12;;;;;;;6.97;2.75;;;;;;;8.95;57.61;100736.00;5031065;28;20144;-60
2022/04/03 03:17:39;;;;;;;5.85;3.20;;;;;;;8.95;57.64;100734.25;5031047;28;20122;-61
2022/04/03 03:20:07;;;;;;;5.00;3.03;;;;;;;8.96;57.61;100741.19;5030876;28;20088;-61
2022/04/03 03:22:34;;;;;;;6.15;3.13;;;;;;;8.96;57.77;100746.41;5030821;28;20141;-61
2022/04/03 03:25:02;;;;;;;8.35;2.83;;;;;;;8.93;57.90;100737.88;5030781;28;20049;-61
2022/04/03 03:27:28;;;;;;;7.63;2.67;;;;;;;8.94;57.97;100743.00;5030632;28;20054;-62
2022/04/03 03:29:55;;;;;;;6.93;2.83;;;;;;;8.93;57.83;100754.41;5030998;28;20049;-61
2022/04/03 03:32:24;;;;;;;5.20;2.78;;;;;;;8.90;58.07;100753.69;5030969;28;20061;-61
2022/04/03 03:34:51;;;;;;;4.35;2.45;;;;;;;8.92;57.89;100763.16;5030862;28;20119;-61
2022/04/03 03:37:18;;;;;;;7.05;3.22;;;;;;;8.90;58.00;100764.16;5030525;28;20533;-61
2022/04/03 03:39:45;;;;;;;5.50;2.83;;;;;;;8.88;58.14;100772.09;5030477;28;20140;-61
2022/04/03 03:42:11;;;;;;;7.35;2.30;;;;;;;8.83;57.89;100769.69;5030551;28;20076;-61
2022/04/03 03:44:39;;;;;;;4.22;2.63;;;;;;;8.73;57.93;100776.31;5030507;28;20518;-61
2022/04/03 03:47:07;;;;;;;4.63;2.50;;;;;;;8.67;57.98;100779.22;5030368;28;20045;-60
2022/04/03 03:49:34;;;;;;;6.95;2.28;;;;;;;8.62;58.06;100784.69;5030107;28;20049;-61
2022/04/03 03:52:01;;;;;;;3.67;2.20;;;;;;;8.58;58.02;100790.13;5030449;28;20054;-60
2022/04/03 03:54:27;;;;;;;5.75;2.67;;;;;;;8.55;58.05;100798.97;5030432;28;20057;-66
2022/04/03 03:56:54;;;;;;;4.97;2.70;;;;;;;8.54;57.86;100796.44;5030270;28;20061;-61
2022/04/03 03:59:21;;;;;;;5.05;2.67;;;;;;;8.52;57.80;100796.50;5030495;28;20045;-61
2022/04/03 04:01:47;;;;;;;3.45;1.98;;;;;;;8.47;58.05;100801.13;5030285;28;20046;-61
2022/04/03 04:04:14;;;;;;;5.95;2.60;;;;;;;8.43;57.86;100808.22;5030085;28;20527;-61
2022/04/03 04:06:41;;;;;;;5.20;2.40;;;;;;;8.42;58.01;100814.38;5029844;28;20045;-61
2022/04/03 04:09:08;;;;;;;6.75;2.30;;;;;;;8.39;58.00;100809.25;5029864;28;20049;-61
2022/04/03 04:11:34;;;;;;;6.05;2.30;;;;;;;8.41;57.80;100810.03;5029977;28;20111;-60
2022/04/03 04:14:01;;;;;;;4.80;2.30;;;;;;;8.41;58.02;100819.66;5030003;28;20045;-60
2022/04/03 04:16:27;;;;;;;6.60;2.70;;;;;;;8.39;57.90;100816.25;5029826;28;20049;-61
2022/04/03 04:18:54;;;;;;;5.93;3.00;;;;;;;8.39;58.00;100818.88;5029986;28;20048;-61
2022/04/03 04:21:21;;;;;;;5.65;2.50;;;;;;;8.39;58.15;100819.72;5029625;28;20103;-61
2022/04/03 04:23:47;;;;;;;3.88;2.45;;;;;;;8.41;58.10;100835.34;5029655;28;20449;-61
2022/04/03 04:26:15;;;;;;;4.28;2.50;;;;;;;8.42;58.01;100832.66;5029587;28;20049;-62
2022/04/03 04:28:42;;;;;;;5.13;2.60;;;;;;;8.40;58.08;100831.03;5029980;28;20497;-60
2022/04/03 04:31:09;;;;;;;5.40;2.55;;;;;;;8.39;58.15;100839.81;5029854;28;20206;-61
2022/04/03 04:33:35;;;;;;;4.47;2.63;;;;;;;8.35;58.13;100841.69;5029460;28;20095;-60
2022/04/03 04:36:02;;;;;;;4.72;2.65;;;;;;;8.33;58.39;100852.25;5029949;28;20486;-60
2022/04/03 04:38:29;;;;;;;6.70;3.05;;;;;;;8.32;58.53;100855.75;5029022;28;20045;-61
2022/04/03 04:40:55;;;;;;;6.93;2.92;;;;;;;8.36;58.29;100859.09;5029102;28;20049;-61
2022/04/03 04:43:22;;;;;;;6.25;3.45;;;;;;;8.33;58.33;100864.47;5029566;28;20486;-61
2022/04/03 04:45:49;;;;;;;5.25;2.75;;;;;;;8.34;58.39;100866.16;5029670;28;20099;-61
2022/04/03 04:48:16;;;;;;;7.53;2.90;;;;;;;8.33;58.33;100877.53;5029281;28;20505;-61
2022/04/03 04:50:43;;;;;;;6.20;3.08;;;;;;;8.31;58.41;100882.81;5029379;28;20056;-61
2022/04/03 04:53:10;;;;;;;4.75;2.63;;;;;;;8.34;58.48;100889.69;5029295;28;20107;-60
2022/04/03 04:55:36;;;;;;;5.88;2.90;;;;;;;8.34;58.62;100887.94;5029361;28;20084;-60
2022/04/03 04:58:03;;;;;;;7.43;2.95;;;;;;;8.38;58.45;100893.88;5029150;28;20061;-61
2022/04/03 05:00:30;;;;;;;4.72;2.90;;;;;;;8.40;58.43;100899.03;5029242;28;20046;-61
2022/04/03 05:02:58;;;;;;;5.50;3.20;;;;;;;8.39;58.27;100900.78;5029141;28;20071;-61
2022/04/03 05:05:27;;;;;;;7.65;2.88;;;;;;;8.39;58.50;100898.16;5029167;28;20840;-60
2022/04/03 05:07:55;;;;;;;6.38;3.00;;;;;;;8.41;58.57;100898.97;5029280;28;20045;-61
2022/04/03 05:10:24;;;;;;;4.63;2.92;;;;;;;8.44;58.63;100903.19;5029267;28;20076;-61
2022/04/03 05:12:51;;;;;;;7.28;3.40;;;;;;;8.50;58.72;100905.56;5029400;28;20054;-60
2022/04/03 05:15:18;;;;;;;7.25;3.08;;;;;;;8.57;58.56;100914.84;5029365;28;20144;-61
2022/04/03 05:17:45;;;;;;;6.53;2.85;;;;;;;8.65;58.65;100912.72;5029210;28;20057;-61
2022/04/03 05:20:14;;;;;;;5.07;3.95;;;;;;;8.71;58.85;100916.84;5029064;28;20049;-61
2022/04/03 05:22:42;;;;;;;8.32;4.10;;;;;;;8.80;58.26;100916.41;5028689;28;20111;-61
2022/04/03 05:25:13;;;;;;;6.30;3.25;;;;;;;8.81;58.40;100920.72;5029037;28;20050;-60
2022/04/03 05:27:41;;;;;;;5.65;2.92;;;;;;;8.83;58.45;100925.88;5028862;28;20474;-60
2022/04/03 05:30:09;;;;;;;6.68;3.05;;;;;;;8.78;58.76;100927.84;5029163;28;20041;-60
2022/04/03 05:32:36;;;;;;;5.93;2.83;;;;;;;8.84;58.72;100930.19;5028695;28;20054;-61
2022/04/03 05:35:04;;;;;;;3.97;2.58;;;;;;;8.80;59.05;100933.88;5028948;28;20521;-60
2022/04/03 05:37:32;;;;;;;4.97;3.03;;;;;;;8.87;58.88;100931.81;5028645;28;20068;-66
2022/04/03 05:39:58;;;;;;;5.88;3.15;;;;;;;8.96;58.79;100937.47;5028682;28;20067;-61
2022/04/03 05:42:25;;;;;;;6.32;3.47;;;;;;;8.98;58.67;100937.41;5028801;28;20068;-61
2022/04/03 05:44:52;;;;;;;4.30;3.15;;;;;;;9.02;58.73;100938.94;5029292;28;20069;-61
2022/04/03 05:47:19;;;;;;;6.75;3.15;;;;;;;9.08;58.81;100943.06;5028866;28;20057;-66
2022/04/03 05:49:46;;;;;;;5.38;3.33;;;;;;;9.17;58.59;100945.22;5028904;28;20103;-66
2022/04/03 05:52:13;;;;;;;6.10;3.40;;;;;;;9.22;58.47;100951.09;5032331;28;20041;-60
2022/04/03 05:54:40;;;;;;;4.13;2.60;;;;;;;9.28;58.63;100947.31;5032367;28;20093;-61
2022/04/03 05:57:07;;;;;;;3.97;2.70;;;;;;;9.36;58.52;100950.44;5032658;28;20504;-61
2022/04/03 05:59:34;;;;;;;4.88;2.90;;;;;;;9.47;58.22;100953.38;5032500;28;20095;-61
2022/04/03 06:02:05;;;;;;;5.10;2.50;;;;;;;9.54;57.87;100960.94;5032455;28;20059;-61
2022/04/03 06:04:33;;;;;;;7.15;2.60;;;;;;;9.59;57.90;100962.41;5032263;28;20498;-61
2022/04/03 06:07:00;;;;;;;6.28;2.50;;;;;;;9.69;57.77;100956.69;5032205;28;20084;-61
2022/04/03 06:09:26;;;;;;;6.55;2.50;;;;;;;9.73;57.71;100963.50;5032170;28;20071;-61
2022/04/03 06:11:53;;;;;;;4.28;2.50;;;;;;;9.83;57.19;100966.50;5032332;28;20053;-61
2022/04/03 06:14:20;;;;;;;5.25;2.38;;;;;;;9.90;57.06;100976.63;5032497;28;20049;-61
2022/04/03 06:16:46;;;;;;;3.83;2.65;;;;;;;9.97;56.93;100975.38;5032292;28;20099;-61
2022/04/03 06:19:13;;;;;;;5.95;2.70;;;;;;;10.07;56.59;100974.94;5032138;28;20490;-61
2022/04/03 06:21:39;;;;;;;4.75;2.40;;;;;;;10.17;56.58;100984.03;5032030;28;20478;-61
2022/04/03 06:24:06;;;;;;;3.30;2.10;;;;;;;10.26;56.58;100986.16;5032147;28;20079;-61
2022/04/03 06:26:33;;;;;;;4.45;2.30;;;;;;;10.33;56.32;100989.31;5031903;28;20095;-61
2022/04/03 06:29:00;;;;;;;6.47;2.97;;;;;;;10.38;56.09;100992.56;5031968;28;20056;-61
2022/04/03 06:31:28;;;;;;;6.38;3.15;;;;;;;10.47;55.81;100995.66;5031983;28;20050;-61
2022/04/03 06:33:55;;;;;;;5.32;2.50;;;;;;;10.57;55.56;100999.50;5031718;28;20114;-61
2022/04/03 06:36:21;;;;;;;5.13;2.75;;;;;;;10.67;55.23;101005.94;5032019;28;20063;-66
2022/04/03 06:38:48;;;;;;;3.88;2.42;;;;;;;10.74;55.12;101003.84;5031895;28;20042;-62
2022/04/03 06:41:15;;;;;;;3.25;2.30;;;;;;;10.76;54.91;101013.31;5031710;28;20057;-61
2022/04/03 06:43:41;;;;;;;5.57;2.90;;;;;;;10.85;54.43;101022.50;5031647;28;20556;-60
2022/04/03 06:46:08;;;;;;;4.80;2.80;;;;;;;10.80;54.31;101016.63;5031527;28;20502;-61
2022/04/03 06:48:35;;;;;;;4.85;2.50;;;;;;;10.91;53.82;101016.91;5031600;28;20140;-61
2022/04/03 06:51:02;;;;;;;6.72;2.78;;;;;;;10.94;53.59;101016.78;5031582;28;20517;-61
2022/04/03 06:53:28;;;;;;;3.80;2.40;;;;;;;10.99;53.42;101024.38;5031638;28;20099;-61
2022/04/03 06:55:55;;;;;;;5.43;2.30;;;;;;;11.04;53.01;101024.16;5031517;28;20057;-61
2022/04/03 06:58:22;;;;;;;3.97;2.58;;;;;;;11.11;52.94;101030.75;5031156;28;20100;-61
2022/04/03 07:00:52;;;;;;;3.83;2.53;;;;;;;11.19;52.43;101033.81;5030901;28;20084;-61
2022/04/03 07:03:18;;;;;;;4.00;2.33;;;;;;;11.30;52.20;101038.50;5031594;28;20079;-65
2022/04/03 07:05:45;;;;;;;4.32;2.63;;;;;;;11.47;51.72;101040.16;5031577;28;20053;-61
2022/04/03 07:08:12;;;;;;;3.55;2.10;;;;;;;11.54;51.46;101041.53;5031436;28;20045;-61
2022/04/03 07:10:38;;;;;;;4.05;2.00;;;;;;;11.62;51.34;101048.97;5031008;28;20053;-61
2022/04/03 07:13:05;;;;;;;6.90;2.40;;;;;;;11.62;51.37;101050.75;5031258;28;20054;-61
2022/04/03 07:15:32;;;;;;;5.18;2.33;;;;;;;11.54;51.53;101048.56;5031059;28;20489;-61
2022/04/03 07:17:58;;;;;;;5.40;2.60;;;;;;;11.45;51.58;101052.53;5031071;28;20536;-61
2022/04/03 07:20:25;;;;;;;5.60;2.58;;;;;;;11.38;51.75;101057.28;5030759;28;20049;-66
2022/04/03 07:22:52;;;;;;;3.70;2.20;;;;;;;11.28;51.99;101058.72;5030810;28;20052;-61
2022/04/03 07:25:21;;;;;;;2.70;2.28;;;;;;;11.20;52.04;101061.78;5030864;28;20072;-61
2022/04/03 07:27:47;;;;;;;4.75;2.90;;;;;;;11.16;52.39;101065.50;5030977;28;20512;-62
2022/04/03 07:30:14;;;;;;;5.10;2.50;;;;;;;11.15;52.61;101070.81;5031145;28;20103;-61
2022/04/03 07:32:41;;;;;;;3.72;2.75;;;;;;;11.11;52.76;101075.41;5030936;28;20061;-60
2022/04/03 07:35:08;;;;;;;4.72;3.00;;;;;;;11.11;52.60;101084.13;5030659;28;20053;-61
2022/04/03 07:37:35;;;;;;;5.18;2.30;;;;;;;11.13;52.61;101086.66;5030486;28;20067;-61
2022/04/03 07:40:04;;;;;;;3.90;2.55;;;;;;;11.16;52.52;101093.53;5030510;28;20046;-60
2022/04/03 07:42:31;;;;;;;6.43;2.40;;;;;;;11.17;52.35;101100.50;5030501;28;20046;-61
2022/04/03 07:44:57;;;;;;;4.25;2.50;;;;;;;11.20;52.34;101101.19;5030578;28;20053;-61
2022/04/03 07:47:25;;;;;;;2.85;2.10;;;;;;;11.25;52.10;101103.56;5030372;28;20049;-61
2022/04/03 07:49:51;;;;;;;4.85;2.30;;;;;;;11.29;51.93;101105.09;5030615;28;20045;-64
2022/04/03 07:52:19;;;;;;;6.35;2.30;;;;;;;11.34;51.45;101112.72;5030512;28;20049;-61
2022/04/03 07:54:45;;;;;;;4.90;2.58;;;;;;;11.40;51.02;101118.50;5030579;28;20048;-61
2022/04/03 07:57:12;;;;;;;4.43;2.78;;;;;;;11.57;50.30;101114.94;5030369;28;20096;-67
2022/04/03 07:59:39;;;;;;;3.83;2.33;;;;;;;11.85;49.58;101125.72;5030078;28;20054;-61
2022/04/03 08:02:06;;;;;;;4.18;2.20;;;;;;;11.95;49.08;101129.53;5029957;28;20520;-63
2022/04/03 08:04:33;;;;;;;6.05;2.92;;;;;;;12.27;48.44;101129.50;5029801;28;20096;-61
2022/04/03 08:06:59;;;;;;;4.47;2.50;;;;;;;12.43;48.30;101126.84;5030265;28;20050;-61
2022/04/03 08:09:26;;;;;;;3.65;2.25;;;;;;;12.54;47.87;101132.34;5029936;28;20045;-61
2022/04/03 08:11:52;;;;;;;4.80;2.30;;;;;;;12.72;47.53;101137.44;5029943;28;20049;-61
2022/04/03 08:14:19;;;;;;;5.22;2.70;;;;;;;12.85;47.44;101143.66;5029328;28;20049;-61
2022/04/03 08:16:46;;;;;;;4.75;2.33;;;;;;;12.99;47.26;101139.34;5030036;28;20095;-61
2022/04/03 08:19:13;;;;;;;4.35;2.03;;;;;;;12.92;47.29;101148.56;5029889;28;20045;-61
2022/04/03 08:21:39;;;;;;;2.65;2.22;;;;;;;12.86;47.19;101153.28;5028477;28;20053;-63
2022/04/03 08:24:06;;;;;;;3.05;2.40;;;;;;;12.99;47.17;101157.78;5029592;28;20379;-62
2022/04/03 08:26:33;;;;;;;4.93;2.47;;;;;;;13.48;45.97;101148.69;5029709;28;20092;-67
2022/04/03 08:29:00;;;;;;;4.72;2.70;;;;;;;13.58;45.83;101152.44;5029601;28;20067;-63
2022/04/03 08:31:27;;;;;;;3.85;2.30;;;;;;;13.47;46.21;101153.13;5029353;28;20482;-61
2022/04/03 08:33:56;;;;;;;4.70;2.40;;;;;;;13.78;45.41;101151.19;5029552;28;20045;-61
2022/04/03 08:36:22;;;;;;;3.10;2.20;;;;;;;13.68;45.84;101152.72;5029377;28;20049;-63
2022/04/03 08:38:50;;;;;;;3.63;2.10;;;;;;;13.69;45.47;101162.34;5029982;28;20050;-60
2022/04/03 08:41:17;;;;;;;2.70;2.13;;;;;;;13.80;45.17;101164.28;5029558;28;20494;-61
2022/04/03 08:43:47;;;;;;;4.22;2.03;;;;;;;13.80;45.10;101169.56;5029231;28;20049;-61
2022/04/03 08:46:16;;;;;;;2.08;1.80;;;;;;;13.97;44.34;101161.41;5029464;28;20053;-61
2022/04/03 08:48:47;;;;;;;3.33;1.80;;;;;;;13.77;44.39;101175.88;5029427;28;20049;-63
2022/04/03 08:51:14;;;;;;;2.65;2.00;;;;;;;13.85;43.89;101159.56;5029319;28;20103;-61
2022/04/03 08:53:44;;;;;;;2.67;1.60;;;;;;;13.94;43.57;101176.59;5029367;28;20049;-60
2022/04/03 08:56:11;;;;;;;2.90;1.80;;;;;;;14.19;42.78;101174.09;5029380;28;20049;-63
2022/04/03 08:58:38;;;;;;;3.30;2.20;;;;;;;14.45;41.97;101179.44;5029351;28;20049;-68
2022/04/03 09:01:04;;;;;;;5.25;1.90;;;;;;;14.61;41.77;101173.97;5029329;28;20052;-62
2022/04/03 09:03:31;;;;;;;2.55;1.40;;;;;;;15.21;40.18;101176.16;5029289;28;20486;-63
2022/04/03 09:06:15;;;;;;;2.90;1.70;;;;;;;15.77;39.39;101170.47;5029284;28;20424;-62
2022/04/03 09:08:43;;;;;;;3.58;1.80;;;;;;;16.11;39.01;101171.56;5029307;28;20073;-63
2022/04/03 09:11:11;;;;;;;5.15;2.10;;;;;;;16.29;38.67;101171.13;5029498;28;20080;-63
2022/04/03 09:13:39;;;;;;;2.55;1.75;;;;;;;16.32;38.55;101168.28;5029030;28;20421;-63
2022/04/03 09:16:06;;;;;;;3.28;1.80;;;;;;;16.63;38.05;101173.91;5029073;28;20049;-60
2022/04/03 09:18:45;;;;;;;3.83;1.70;;;;;;;16.78;37.27;101180.69;5028656;28;20057;-62
2022/04/03 09:21:22;;;;;;;2.28;1.60;;;;;;;17.00;36.82;101181.78;5028832;28;20096;-62
2022/04/03 09:24:04;;;;;;;4.20;1.80;;;;;;;17.07;37.01;101179.47;5029175;28;20560;-63
2022/04/03 09:26:31;;;;;;;1.88;1.60;;;;;;;17.26;36.66;101187.69;5032965;28;20112;-63
2022/04/03 09:29:15;;;;;;;4.60;1.80;;;;;;;17.35;36.20;101186.13;5033099;28;20045;-63
2022/04/03 09:31:45;;;;;;;3.45;1.88;;;;;;;17.36;35.97;101187.81;5032673;28;20547;-63
2022/04/03 09:34:17;;;;;;;3.25;1.73;;;;;;;16.52;36.90;101185.34;5033129;28;20073;-61
2022/04/03 09:36:56;;;;;;;2.92;2.08;;;;;;;16.60;36.68;101185.59;5033180;28;20099;-61
2022/04/03 09:39:27;;;;;;;4.40;1.83;;;;;;;17.27;35.90;101183.25;5032585;28;20064;-60
2022/04/03 09:41:56;;;;;;;3.15;2.00;;;;;;;17.60;35.12;101176.25;5032783;28;20096;-63
2022/04/03 09:44:31;;;;;;;3.03;2.03;;;;;;;18.01;34.94;101177.38;5032632;28;20107;-63
2022/04/03 09:47:26;;;;;;;4.70;2.60;;;;;;;18.32;33.92;101174.03;5032546;28;20489;-63
2022/04/03 09:49:55;;;;;;;2.80;2.15;;;;;;;18.39;34.13;101176.03;5033166;28;20076;-63
2022/04/03 09:52:42;;;;;;;2.78;2.20;;;;;;;18.55;33.52;101175.63;5032540;28;20041;-63
2022/04/03 09:55:20;;;;;;;2.92;2.20;;;;;;;18.73;33.22;101178.53;5032736;28;20453;-64
2022/04/03 09:57:49;;;;;;;4.53;2.05;;;;;;;17.66;35.32;101180.19;5032512;28;20104;-63
2022/04/03 10:00:41;;;;;;;3.92;2.67;;;;;;;18.43;34.04;101172.16;5032644;28;20053;-63
2022/04/03 10:03:12;;;;;;;2.75;1.90;;;;;;;18.69;33.43;101177.13;5032600;28;20058;-63
2022/04/03 10:05:39;;;;;;;2.88;2.10;;;;;;;18.96;32.99;101167.81;5031962;28;20053;-61
2022/04/03 10:08:06;;;;;;;2.80;2.08;;;;;;;19.14;32.17;101175.19;5032157;28;20509;-63
2022/04/03 10:10:35;;;;;;;3.70;2.40;;;;;;;18.99;32.36;101172.84;5032176;28;20046;-63
2022/04/03 10:13:03;;;;;;;3.97;2.10;;;;;;;18.09;33.90;101185.59;5032153;28;20046;-63
2022/04/03 10:15:30;;;;;;;4.32;2.20;;;;;;;18.79;32.33;101181.66;5031997;28;20045;-63
2022/04/03 10:17:57;;;;;;;4.57;2.25;;;;;;;18.99;31.79;101174.69;5032109;28;20045;-63
2022/04/03 10:20:25;;;;;;;2.47;1.90;;;;;;;19.28;31.36;101180.13;5031995;28;20049;-63
2022/04/03 10:22:57;;;;;;;2.67;1.80;;;;;;;19.62;30.88;101177.19;5031977;28;20049;-63
2022/04/03 10:25:30;;;;;;;3.17;2.00;;;;;;;19.68;30.34;101174.00;5031769;28;20050;-64
2022/04/03 10:28:02;;;;;;;1.92;1.60;;;;;;;19.47;30.45;101178.53;5031984;28;20049;-63
2022/04/03 10:30:35;;;;;;;3.35;1.70;;;;;;;19.69;29.50;101169.50;5031839;28;20048;-63
2022/04/03 10:33:03;;;;;;;2.10;1.63;;;;;;;19.87;29.43;101172.38;5032048;28;20508;-63
2022/04/03 10:35:29;;;;;;;1.65;1.55;;;;;;;20.09;29.00;101167.75;5031854;28;20414;-63
2022/04/03 10:38:05;;;;;;;2.60;2.08;;;;;;;20.14;28.95;101166.38;5031179;28;20497;-63
2022/04/03 10:40:34;;;;;;;2.45;2.00;;;;;;;20.36;28.82;101172.41;5031566;28;20053;-63
2022/04/03 10:43:06;;;;;;;3.15;2.17;;;;;;;20.43;28.61;101165.53;5031703;28;20054;-63
2022/04/03 10:45:35;;;;;;;3.63;1.80;;;;;;;20.61;28.18;101171.00;5031730;28;20067;-63
2022/04/03 10:48:20;;;;;;;3.33;2.00;;;;;;;20.94;27.67;101165.34;5031682;28;20045;-63
2022/04/03 10:51:22;;;;;;;2.30;2.03;;;;;;;20.73;27.83;101169.03;5032073;28;20129;-62
2022/04/03 10:53:49;;;;;;;3.38;1.63;;;;;;;20.81;27.67;101161.19;5031878;28;20052;-61
2022/04/03 10:56:24;;;;;;;2.47;1.92;;;;;;;19.84;28.93;101168.16;5031675;28;20501;-62
2022/04/03 10:58:53;;;;;;;2.97;2.10;;;;;;;18.95;30.02;101173.25;5031535;28;20052;-61
2022/04/03 11:01:31;;;;;;;2.88;2.20;;;;;;;18.71;30.02;101171.66;5031385;28;20409;-63
2022/04/03 11:04:01;;;;;;;3.00;2.70;;;;;;;19.07;29.41;101164.19;5031215;28;20084;-61
2022/04/03 11:06:30;;;;;;;2.72;2.40;;;;;;;20.20;28.09;101157.84;5031121;28;20127;-63
2022/04/03 11:09:06;;;;;;;2.60;2.40;;;;;;;20.63;27.44;101160.19;5031286;28;20132;-61
2022/04/03 11:11:40;;;;;;;3.45;3.15;;;;;;;20.75;27.46;101155.56;5030897;28;20076;-61
2022/04/03 11:14:10;;;;;;;2.88;2.20;;;;;;;;;;5031572;28;20099;-63
2022/04/03 11:16:54;;;;;;;2.85;2.20;;;;;;;20.43;26.97;101162.03;5031204;28;20050;-61
2022/04/03 11:19:35;;;;;;;2.50;2.20;;;;;;;19.37;28.58;101168.69;5030755;28;20073;-61
2022/04/03 11:22:03;;;;;;;3.63;2.83;;;;;;;19.03;28.47;101170.78;5030817;28;20065;-61
2022/04/03 11:24:32;;;;;;;4.45;2.70;;;;;;;18.74;29.19;101166.94;5030758;28;20045;-61
2022/04/03 11:26:59;;;;;;;4.10;2.63;;;;;;;18.16;29.58;101174.47;5030904;28;20544;-61
2022/04/03 11:29:26;;;;;;;4.20;3.40;;;;;;;17.94;29.58;101177.06;5030861;28;20045;-63
2022/04/03 11:31:53;;;;;;;4.43;3.28;;;;;;;18.11;29.50;101173.00;5030807;28;20072;-63
2022/04/03 11:34:20;;;;;;;4.47;2.85;;;;;;;17.55;30.19;101171.28;5030723;28;20049;-61